sensor_id;sensor_type;location;lat;lon;timestamp;pressure;altitude;pressure_sealevel;temperature;humidity
28648;BME280;17137;51.494;-0.262;2022-07-23T00:00:15;49927.79;;;-145.72;70.28
28648;BME280;17137;51.494;-0.262;2022-07-23T00:00:45;49934.44;;;-145.72;70.40
28648;BME280;17137;51.494;-0.262;2022-07-23T00:01:16;49933.09;;;-145.72;70.16
28648;BME280;17137;51.494;-0.262;2022-07-23T00:01:47;49931.73;;;-145.72;70.21
28648;BME280;17137;51.494;-0.262;2022-07-23T00:02:17;49930.87;;;-145.72;70.74
28648;BME280;17137;51.494;-0.262;2022-07-23T00:02:48;49926.68;;;-145.72;70.79
28648;BME280;17137;51.494;-0.262;2022-07-23T00:03:18;49940.85;;;-145.72;71.14
28648;BME280;17137;51.494;-0.262;2022-07-23T00:03:49;49943.44;;;-145.72;71.44
28648;BME280;17137;51.494;-0.262;2022-07-23T00:04:20;49922.98;;;-145.72;71.14
28648;BME280;17137;51.494;-0.262;2022-07-23T00:04:55;49927.54;;;-145.72;70.51
28648;BME280;17137;51.494;-0.262;2022-07-23T00:05:26;49933.58;;;-145.72;70.33
28648;BME280;17137;51.494;-0.262;2022-07-23T00:05:56;49925.44;;;-145.72;70.73
28648;BME280;17137;51.494;-0.262;2022-07-23T00:06:26;49936.91;;;-145.72;70.95
28648;BME280;17137;51.494;-0.262;2022-07-23T00:06:57;49941.59;;;-145.72;71.62
28648;BME280;17137;51.494;-0.262;2022-07-23T00:07:28;49948.37;;;-145.72;71.86
28648;BME280;17137;51.494;-0.262;2022-07-23T00:07:58;49948.86;;;-145.72;72.01
28648;BME280;17137;51.494;-0.262;2022-07-23T00:08:29;49942.70;;;-145.72;72.04
28648;BME280;17137;51.494;-0.262;2022-07-23T00:08:59;49933.46;;;-145.72;72.03
28648;BME280;17137;51.494;-0.262;2022-07-23T00:09:30;49938.88;;;-145.72;71.93
28648;BME280;17137;51.494;-0.262;2022-07-23T00:10:00;49936.17;;;-145.72;71.64
28648;BME280;17137;51.494;-0.262;2022-07-23T00:10:31;49932.22;;;-145.72;71.48
28648;BME280;17137;51.494;-0.262;2022-07-23T00:11:01;49942.58;;;-145.72;71.44
28648;BME280;17137;51.494;-0.262;2022-07-23T00:11:32;49931.61;;;-145.72;71.36
28648;BME280;17137;51.494;-0.262;2022-07-23T00:12:02;49946.77;;;-145.72;71.72
28648;BME280;17137;51.494;-0.262;2022-07-23T00:12:33;49939.99;;;-145.72;72.21
28648;BME280;17137;51.494;-0.262;2022-07-23T00:13:03;49939.00;;;-145.72;72.56
28648;BME280;17137;51.494;-0.262;2022-07-23T00:13:34;49946.15;;;-145.72;72.32
28648;BME280;17137;51.494;-0.262;2022-07-23T00:14:04;49942.08;;;-145.72;72.05
28648;BME280;17137;51.494;-0.262;2022-07-23T00:14:35;49943.07;;;-145.72;71.91
28648;BME280;17137;51.494;-0.262;2022-07-23T00:15:07;49945.90;;;-145.72;71.81
28648;BME280;17137;51.494;-0.262;2022-07-23T00:15:38;49934.32;;;-145.72;71.72
28648;BME280;17137;51.494;-0.262;2022-07-23T00:16:09;49928.28;;;-145.72;71.54
28648;BME280;17137;51.494;-0.262;2022-07-23T00:16:40;49938.76;;;-145.72;71.78
28648;BME280;17137;51.494;-0.262;2022-07-23T00:17:10;49929.76;;;-145.72;71.46
28648;BME280;17137;51.494;-0.262;2022-07-23T00:17:41;49945.29;;;-145.72;72.03
28648;BME280;17137;51.494;-0.262;2022-07-23T00:18:12;49936.17;;;-145.72;72.28
28648;BME280;17137;51.494;-0.262;2022-07-23T00:18:42;49945.78;;;-145.72;71.98
28648;BME280;17137;51.494;-0.262;2022-07-23T00:19:14;49944.06;;;-145.72;71.51
28648;BME280;17137;51.494;-0.262;2022-07-23T00:19:44;49940.97;;;-145.72;71.25
28648;BME280;17137;51.494;-0.262;2022-07-23T00:20:15;49940.73;;;-145.72;71.27
28648;BME280;17137;51.494;-0.262;2022-07-23T00:20:45;49938.63;;;-145.72;71.86
28648;BME280;17137;51.494;-0.262;2022-07-23T00:21:16;49954.16;;;-145.72;72.51
28648;BME280;17137;51.494;-0.262;2022-07-23T00:21:46;49961.68;;;-145.72;72.63
28648;BME280;17137;51.494;-0.262;2022-07-23T00:22:17;49953.79;;;-145.72;72.61
28648;BME280;17137;51.494;-0.262;2022-07-23T00:22:48;49952.68;;;-145.72;72.76
28648;BME280;17137;51.494;-0.262;2022-07-23T00:23:19;49961.19;;;-145.72;72.86
28648;BME280;17137;51.494;-0.262;2022-07-23T00:23:49;49953.18;;;-145.72;72.95
28648;BME280;17137;51.494;-0.262;2022-07-23T00:24:19;49945.66;;;-145.72;72.84
28648;BME280;17137;51.494;-0.262;2022-07-23T00:24:50;49952.07;;;-145.72;72.51
28648;BME280;17137;51.494;-0.262;2022-07-23T00:25:22;49956.13;;;-145.72;73.46
28648;BME280;17137;51.494;-0.262;2022-07-23T00:25:53;49962.42;;;-145.72;73.56
28648;BME280;17137;51.494;-0.262;2022-07-23T00:26:23;49968.46;;;-145.72;73.52
28648;BME280;17137;51.494;-0.262;2022-07-23T00:26:54;49951.33;;;-145.72;73.20
28648;BME280;17137;51.494;-0.262;2022-07-23T00:27:24;49954.78;;;-145.72;73.15
28648;BME280;17137;51.494;-0.262;2022-07-23T00:27:55;49937.52;;;-145.72;73.02
28648;BME280;17137;51.494;-0.262;2022-07-23T00:28:25;49947.88;;;-145.72;72.66
28648;BME280;17137;51.494;-0.262;2022-07-23T00:28:56;49948.37;;;-145.72;72.42
28648;BME280;17137;51.494;-0.262;2022-07-23T00:29:26;49936.17;;;-145.72;72.18
28648;BME280;17137;51.494;-0.262;2022-07-23T00:29:57;49940.73;;;-145.72;72.06
28648;BME280;17137;51.494;-0.262;2022-07-23T00:30:28;49939.74;;;-145.72;71.91
28648;BME280;17137;51.494;-0.262;2022-07-23T00:30:59;49946.77;;;-145.72;71.90
28648;BME280;17137;51.494;-0.262;2022-07-23T00:31:29;49948.86;;;-145.72;71.76
28648;BME280;17137;51.494;-0.262;2022-07-23T00:31:59;49947.75;;;-145.72;71.76
28648;BME280;17137;51.494;-0.262;2022-07-23T00:32:30;49953.18;;;-145.72;71.65
28648;BME280;17137;51.494;-0.262;2022-07-23T00:33:02;49948.12;;;-145.72;72.01
28648;BME280;17137;51.494;-0.262;2022-07-23T00:33:33;49949.73;;;-145.72;72.37
28648;BME280;17137;51.494;-0.262;2022-07-23T00:34:04;49942.82;;;-145.72;71.96
28648;BME280;17137;51.494;-0.262;2022-07-23T00:34:34;49950.96;;;-145.72;72.05
28648;BME280;17137;51.494;-0.262;2022-07-23T00:35:06;49949.73;;;-145.72;72.17
28648;BME280;17137;51.494;-0.262;2022-07-23T00:35:39;49949.60;;;-145.72;72.03
28648;BME280;17137;51.494;-0.262;2022-07-23T00:36:09;49948.12;;;-145.72;71.95
28648;BME280;17137;51.494;-0.262;2022-07-23T00:36:40;49948.25;;;-145.72;72.03
28648;BME280;17137;51.494;-0.262;2022-07-23T00:37:10;49957.24;;;-145.72;72.46
28648;BME280;17137;51.494;-0.262;2022-07-23T00:37:41;49941.34;;;-145.72;72.44
28648;BME280;17137;51.494;-0.262;2022-07-23T00:38:12;49959.09;;;-145.72;72.65
28648;BME280;17137;51.494;-0.262;2022-07-23T00:38:42;49970.68;;;-145.72;73.25
28648;BME280;17137;51.494;-0.262;2022-07-23T00:39:12;49962.42;;;-145.72;73.50
28648;BME280;17137;51.494;-0.262;2022-07-23T00:39:43;49959.22;;;-145.72;73.56
28648;BME280;17137;51.494;-0.262;2022-07-23T00:40:13;49957.98;;;-145.72;73.56
28648;BME280;17137;51.494;-0.262;2022-07-23T00:40:44;49969.57;;;-145.72;74.12
28648;BME280;17137;51.494;-0.262;2022-07-23T00:41:15;49970.68;;;-145.72;73.98
28648;BME280;17137;51.494;-0.262;2022-07-23T00:41:45;49965.75;;;-145.72;74.11
28648;BME280;17137;51.494;-0.262;2022-07-23T00:42:15;49963.65;;;-145.72;74.46
28648;BME280;17137;51.494;-0.262;2022-07-23T00:42:46;49962.54;;;-145.72;74.32
28648;BME280;17137;51.494;-0.262;2022-07-23T00:43:19;49967.60;;;-145.72;74.48
28648;BME280;17137;51.494;-0.262;2022-07-23T00:43:50;49964.52;;;-145.72;74.45
28648;BME280;17137;51.494;-0.262;2022-07-23T00:44:22;49969.20;;;-145.72;74.63
28648;BME280;17137;51.494;-0.262;2022-07-23T00:44:53;49972.40;;;-145.72;74.88
28648;BME280;17137;51.494;-0.262;2022-07-23T00:45:23;49971.79;;;-145.72;75.44
28648;BME280;17137;51.494;-0.262;2022-07-23T00:45:54;49971.91;;;-145.72;75.23
28648;BME280;17137;51.494;-0.262;2022-07-23T00:46:24;49972.40;;;-145.72;75.17
28648;BME280;17137;51.494;-0.262;2022-07-23T00:46:56;49972.77;;;-145.72;75.14
28648;BME280;17137;51.494;-0.262;2022-07-23T00:47:27;49975.12;;;-145.72;75.10
28648;BME280;17137;51.494;-0.262;2022-07-23T00:47:57;49959.96;;;-145.72;74.70
28648;BME280;17137;51.494;-0.262;2022-07-23T00:48:28;49974.75;;;-145.72;74.87
28648;BME280;17137;51.494;-0.262;2022-07-23T00:48:58;49965.50;;;-145.72;75.25
28648;BME280;17137;51.494;-0.262;2022-07-23T00:49:30;49966.36;;;-145.72;75.39
28648;BME280;17137;51.494;-0.262;2022-07-23T00:50:00;49970.68;;;-145.72;75.58
28648;BME280;17137;51.494;-0.262;2022-07-23T00:50:31;49975.36;;;-145.72;75.22
28648;BME280;17137;51.494;-0.262;2022-07-23T00:51:02;49983.00;;;-145.72;75.61
28648;BME280;17137;51.494;-0.262;2022-07-23T00:51:33;49973.51;;;-145.72;75.85
28648;BME280;17137;51.494;-0.262;2022-07-23T00:52:04;49983.62;;;-145.72;76.06
28648;BME280;17137;51.494;-0.262;2022-07-23T00:52:35;49973.27;;;-145.72;76.09
28648;BME280;17137;51.494;-0.262;2022-07-23T00:53:07;49980.79;;;-145.72;75.97
28648;BME280;17137;51.494;-0.262;2022-07-23T00:53:37;49974.75;;;-145.72;75.76
28648;BME280;17137;51.494;-0.262;2022-07-23T00:54:08;49964.39;;;-145.72;75.64
28648;BME280;17137;51.494;-0.262;2022-07-23T00:54:39;49969.57;;;-145.72;75.15
28648;BME280;17137;51.494;-0.262;2022-07-23T00:55:11;49960.45;;;-145.72;74.50
28648;BME280;17137;51.494;-0.262;2022-07-23T00:55:41;49957.00;;;-145.72;74.48
28648;BME280;17137;51.494;-0.262;2022-07-23T00:56:12;49959.22;;;-145.72;74.36
28648;BME280;17137;51.494;-0.262;2022-07-23T00:56:44;49961.06;;;-145.72;74.08
28648;BME280;17137;51.494;-0.262;2022-07-23T00:57:14;49949.48;;;-145.72;73.84
28648;BME280;17137;51.494;-0.262;2022-07-23T00:57:45;49959.71;;;-145.72;73.80
28648;BME280;17137;51.494;-0.262;2022-07-23T00:58:17;49958.35;;;-145.72;74.03
28648;BME280;17137;51.494;-0.262;2022-07-23T00:58:49;49967.10;;;-145.72;74.55
28648;BME280;17137;51.494;-0.262;2022-07-23T00:59:19;49960.57;;;-145.72;74.63
28648;BME280;17137;51.494;-0.262;2022-07-23T00:59:50;49957.37;;;-145.72;74.50
28648;BME280;17137;51.494;-0.262;2022-07-23T01:00:21;49947.88;;;-145.72;73.96
28648;BME280;17137;51.494;-0.262;2022-07-23T01:00:52;49960.33;;;-145.72;73.49
28648;BME280;17137;51.494;-0.262;2022-07-23T01:01:22;49954.53;;;-145.72;73.37
28648;BME280;17137;51.494;-0.262;2022-07-23T01:01:54;49957.49;;;-145.72;73.32
28648;BME280;17137;51.494;-0.262;2022-07-23T01:02:24;49951.94;;;-145.72;73.34
28648;BME280;17137;51.494;-0.262;2022-07-23T01:02:56;49948.00;;;-145.72;73.38
28648;BME280;17137;51.494;-0.262;2022-07-23T01:03:27;49957.12;;;-145.72;73.22
28648;BME280;17137;51.494;-0.262;2022-07-23T01:03:57;49956.75;;;-145.72;73.32
28648;BME280;17137;51.494;-0.262;2022-07-23T01:04:28;49949.23;;;-145.72;73.28
28648;BME280;17137;51.494;-0.262;2022-07-23T01:04:58;49957.00;;;-145.72;73.11
28648;BME280;17137;51.494;-0.262;2022-07-23T01:05:29;49957.12;;;-145.72;72.80
28648;BME280;17137;51.494;-0.262;2022-07-23T01:06:00;49943.81;;;-145.72;72.87
28648;BME280;17137;51.494;-0.262;2022-07-23T01:06:34;49951.08;;;-145.72;72.93
28648;BME280;17137;51.494;-0.262;2022-07-23T01:07:06;49956.38;;;-145.72;72.87
28648;BME280;17137;51.494;-0.262;2022-07-23T01:07:37;49947.88;;;-145.72;72.86
28648;BME280;17137;51.494;-0.262;2022-07-23T01:08:08;49945.90;;;-145.72;72.89
28648;BME280;17137;51.494;-0.262;2022-07-23T01:08:39;49953.92;;;-145.72;73.01
28648;BME280;17137;51.494;-0.262;2022-07-23T01:09:10;49939.62;;;-145.72;72.31
28648;BME280;17137;51.494;-0.262;2022-07-23T01:09:40;49948.25;;;-145.72;72.24
28648;BME280;17137;51.494;-0.262;2022-07-23T01:10:11;49949.85;;;-145.72;72.57
28648;BME280;17137;51.494;-0.262;2022-07-23T01:10:41;49957.49;;;-145.72;73.18
28648;BME280;17137;51.494;-0.262;2022-07-23T01:11:12;49953.30;;;-145.72;73.06
28648;BME280;17137;51.494;-0.262;2022-07-23T01:11:43;49961.93;;;-145.72;73.10
28648;BME280;17137;51.494;-0.262;2022-07-23T01:12:13;49955.15;;;-145.72;73.03
28648;BME280;17137;51.494;-0.262;2022-07-23T01:12:44;49950.96;;;-145.72;72.77
28648;BME280;17137;51.494;-0.262;2022-07-23T01:13:14;49951.33;;;-145.72;72.57
28648;BME280;17137;51.494;-0.262;2022-07-23T01:13:45;49951.08;;;-145.72;72.71
28648;BME280;17137;51.494;-0.262;2022-07-23T01:14:17;49950.09;;;-145.72;72.55
28648;BME280;17137;51.494;-0.262;2022-07-23T01:14:53;49965.01;;;-145.72;73.43
28648;BME280;17137;51.494;-0.262;2022-07-23T01:15:24;49968.83;;;-145.72;73.34
28648;BME280;17137;51.494;-0.262;2022-07-23T01:15:55;49960.82;;;-145.72;73.69
28648;BME280;17137;51.494;-0.262;2022-07-23T01:16:26;49959.71;;;-145.72;73.54
28648;BME280;17137;51.494;-0.262;2022-07-23T01:16:56;49952.07;;;-145.72;73.38
28648;BME280;17137;51.494;-0.262;2022-07-23T01:17:27;49957.49;;;-145.72;73.23
28648;BME280;17137;51.494;-0.262;2022-07-23T01:17:57;49954.04;;;-145.72;73.11
28648;BME280;17137;51.494;-0.262;2022-07-23T01:18:28;49956.63;;;-145.72;73.05
28648;BME280;17137;51.494;-0.262;2022-07-23T01:18:58;49954.78;;;-145.72;73.03
28648;BME280;17137;51.494;-0.262;2022-07-23T01:19:29;49952.68;;;-145.72;73.01
28648;BME280;17137;51.494;-0.262;2022-07-23T01:20:00;49956.13;;;-145.72;72.92
28648;BME280;17137;51.494;-0.262;2022-07-23T01:20:31;49954.41;;;-145.72;72.77
28648;BME280;17137;51.494;-0.262;2022-07-23T01:21:02;49957.00;;;-145.72;72.64
28648;BME280;17137;51.494;-0.262;2022-07-23T01:21:36;49945.66;;;-145.72;72.55
28648;BME280;17137;51.494;-0.262;2022-07-23T01:22:07;49950.59;;;-145.72;72.55
28648;BME280;17137;51.494;-0.262;2022-07-23T01:22:38;49956.26;;;-145.72;72.40
28648;BME280;17137;51.494;-0.262;2022-07-23T01:23:09;49938.51;;;-145.72;72.27
28648;BME280;17137;51.494;-0.262;2022-07-23T01:23:40;49947.38;;;-145.72;72.23
28648;BME280;17137;51.494;-0.262;2022-07-23T01:24:12;49938.51;;;-145.72;71.77
28648;BME280;17137;51.494;-0.262;2022-07-23T01:24:43;49944.79;;;-145.72;71.57
28648;BME280;17137;51.494;-0.262;2022-07-23T01:25:14;49950.34;;;-145.72;71.55
28648;BME280;17137;51.494;-0.262;2022-07-23T01:25:49;49942.21;;;-145.72;71.29
28648;BME280;17137;51.494;-0.262;2022-07-23T01:26:22;49943.44;;;-145.72;71.74
28648;BME280;17137;51.494;-0.262;2022-07-23T01:26:52;49937.89;;;-145.72;71.72
28648;BME280;17137;51.494;-0.262;2022-07-23T01:27:22;49942.21;;;-145.72;71.49
28648;BME280;17137;51.494;-0.262;2022-07-23T01:27:53;49942.82;;;-145.72;71.42
28648;BME280;17137;51.494;-0.262;2022-07-23T01:28:24;49939.00;;;-145.72;71.28
28648;BME280;17137;51.494;-0.262;2022-07-23T01:28:55;49938.63;;;-145.72;71.15
28648;BME280;17137;51.494;-0.262;2022-07-23T01:29:26;49950.09;;;-145.72;71.38
28648;BME280;17137;51.494;-0.262;2022-07-23T01:29:57;49946.89;;;-145.72;71.60
28648;BME280;17137;51.494;-0.262;2022-07-23T01:30:30;49944.30;;;-145.72;71.75
28648;BME280;17137;51.494;-0.262;2022-07-23T01:31:00;49939.86;;;-145.72;71.63
28648;BME280;17137;51.494;-0.262;2022-07-23T01:31:31;49936.91;;;-145.72;71.22
28648;BME280;17137;51.494;-0.262;2022-07-23T01:32:02;49945.04;;;-145.72;71.23
28648;BME280;17137;51.494;-0.262;2022-07-23T01:32:32;49938.14;;;-145.72;71.10
28648;BME280;17137;51.494;-0.262;2022-07-23T01:33:03;49941.71;;;-145.72;71.35
28648;BME280;17137;51.494;-0.262;2022-07-23T01:33:33;49944.06;;;-145.72;71.42
28648;BME280;17137;51.494;-0.262;2022-07-23T01:34:04;49943.56;;;-145.72;71.32
28648;BME280;17137;51.494;-0.262;2022-07-23T01:34:35;49943.32;;;-145.72;71.34
28648;BME280;17137;51.494;-0.262;2022-07-23T01:35:07;49955.15;;;-145.72;71.87
28648;BME280;17137;51.494;-0.262;2022-07-23T01:35:37;49949.73;;;-145.72;71.97
28648;BME280;17137;51.494;-0.262;2022-07-23T01:36:09;49956.63;;;-145.72;71.98
28648;BME280;17137;51.494;-0.262;2022-07-23T01:36:40;49949.60;;;-145.72;71.76
28648;BME280;17137;51.494;-0.262;2022-07-23T01:37:10;49935.67;;;-145.72;71.71
28648;BME280;17137;51.494;-0.262;2022-07-23T01:37:41;49949.48;;;-145.72;71.39
28648;BME280;17137;51.494;-0.262;2022-07-23T01:38:11;49940.60;;;-145.72;71.10
28648;BME280;17137;51.494;-0.262;2022-07-23T01:38:46;49935.06;;;-145.72;70.80
28648;BME280;17137;51.494;-0.262;2022-07-23T01:39:17;49939.25;;;-145.72;70.83
28648;BME280;17137;51.494;-0.262;2022-07-23T01:39:47;49940.85;;;-145.72;71.23
28648;BME280;17137;51.494;-0.262;2022-07-23T01:40:18;49933.21;;;-145.72;70.99
28648;BME280;17137;51.494;-0.262;2022-07-23T01:40:49;49931.73;;;-145.72;70.81
28648;BME280;17137;51.494;-0.262;2022-07-23T01:41:20;49930.13;;;-145.72;70.83
28648;BME280;17137;51.494;-0.262;2022-07-23T01:41:50;49951.82;;;-145.72;71.32
28648;BME280;17137;51.494;-0.262;2022-07-23T01:42:21;49944.30;;;-145.72;71.09
28648;BME280;17137;51.494;-0.262;2022-07-23T01:42:51;49932.96;;;-145.72;70.76
28648;BME280;17137;51.494;-0.262;2022-07-23T01:43:22;49937.52;;;-145.72;70.70
28648;BME280;17137;51.494;-0.262;2022-07-23T01:43:53;49946.64;;;-145.72;70.74
28648;BME280;17137;51.494;-0.262;2022-07-23T01:44:23;49941.84;;;-145.72;70.61
28648;BME280;17137;51.494;-0.262;2022-07-23T01:44:53;49938.51;;;-145.72;70.58
28648;BME280;17137;51.494;-0.262;2022-07-23T01:45:24;49943.32;;;-145.72;70.74
28648;BME280;17137;51.494;-0.262;2022-07-23T01:46:00;49942.45;;;-145.72;70.57
28648;BME280;17137;51.494;-0.262;2022-07-23T01:46:30;49940.23;;;-145.72;70.64
28648;BME280;17137;51.494;-0.262;2022-07-23T01:47:01;49932.10;;;-145.72;70.90
28648;BME280;17137;51.494;-0.262;2022-07-23T01:47:33;49934.32;;;-145.72;70.82
28648;BME280;17137;51.494;-0.262;2022-07-23T01:48:04;49934.32;;;-145.72;70.65
28648;BME280;17137;51.494;-0.262;2022-07-23T01:48:34;49933.09;;;-145.72;70.82
28648;BME280;17137;51.494;-0.262;2022-07-23T01:49:05;49956.75;;;-145.72;72.27
28648;BME280;17137;51.494;-0.262;2022-07-23T01:49:35;49951.82;;;-145.72;72.38
28648;BME280;17137;51.494;-0.262;2022-07-23T01:50:07;49962.05;;;-145.72;72.46
28648;BME280;17137;51.494;-0.262;2022-07-23T01:50:38;49966.24;;;-145.72;72.58
28648;BME280;17137;51.494;-0.262;2022-07-23T01:51:08;49952.81;;;-145.72;72.47
28648;BME280;17137;51.494;-0.262;2022-07-23T01:51:39;49955.03;;;-145.72;72.58
28648;BME280;17137;51.494;-0.262;2022-07-23T01:52:10;49948.25;;;-145.72;72.28
28648;BME280;17137;51.494;-0.262;2022-07-23T01:52:40;49952.93;;;-145.72;72.84
28648;BME280;17137;51.494;-0.262;2022-07-23T01:53:11;49966.98;;;-145.72;73.08
28648;BME280;17137;51.494;-0.262;2022-07-23T01:53:42;49945.66;;;-145.72;72.47
28648;BME280;17137;51.494;-0.262;2022-07-23T01:54:12;49947.38;;;-145.72;72.73
28648;BME280;17137;51.494;-0.262;2022-07-23T01:54:43;49954.66;;;-145.72;72.87
28648;BME280;17137;51.494;-0.262;2022-07-23T01:55:13;49948.62;;;-145.72;72.59
28648;BME280;17137;51.494;-0.262;2022-07-23T01:55:44;49947.75;;;-145.72;72.24
28648;BME280;17137;51.494;-0.262;2022-07-23T01:56:14;49952.31;;;-145.72;72.02
28648;BME280;17137;51.494;-0.262;2022-07-23T01:56:45;49943.07;;;-145.72;72.13
28648;BME280;17137;51.494;-0.262;2022-07-23T01:57:16;49951.08;;;-145.72;72.45
28648;BME280;17137;51.494;-0.262;2022-07-23T01:57:47;49946.03;;;-145.72;73.05
28648;BME280;17137;51.494;-0.262;2022-07-23T01:58:17;49960.70;;;-145.72;73.63
28648;BME280;17137;51.494;-0.262;2022-07-23T01:58:48;49963.04;;;-145.72;74.42
28648;BME280;17137;51.494;-0.262;2022-07-23T01:59:18;49965.26;;;-145.72;74.13
28648;BME280;17137;51.494;-0.262;2022-07-23T01:59:49;49957.00;;;-145.72;74.11
28648;BME280;17137;51.494;-0.262;2022-07-23T02:00:20;49962.54;;;-145.72;73.95
28648;BME280;17137;51.494;-0.262;2022-07-23T02:00:50;49958.97;;;-145.72;73.65
28648;BME280;17137;51.494;-0.262;2022-07-23T02:01:20;49964.15;;;-145.72;73.80
28648;BME280;17137;51.494;-0.262;2022-07-23T02:01:51;49961.43;;;-145.72;73.72
28648;BME280;17137;51.494;-0.262;2022-07-23T02:02:23;49953.55;;;-145.72;73.23
28648;BME280;17137;51.494;-0.262;2022-07-23T02:02:53;49942.82;;;-145.72;72.76
28648;BME280;17137;51.494;-0.262;2022-07-23T02:03:24;49943.81;;;-145.72;72.48
28648;BME280;17137;51.494;-0.262;2022-07-23T02:03:55;49964.39;;;-145.72;73.04
28648;BME280;17137;51.494;-0.262;2022-07-23T02:04:26;49959.83;;;-145.72;73.64
28648;BME280;17137;51.494;-0.262;2022-07-23T02:04:56;49970.80;;;-145.72;73.86
28648;BME280;17137;51.494;-0.262;2022-07-23T02:05:27;49967.72;;;-145.72;73.81
28648;BME280;17137;51.494;-0.262;2022-07-23T02:05:58;49960.70;;;-145.72;73.79
28648;BME280;17137;51.494;-0.262;2022-07-23T02:06:28;49975.36;;;-145.72;74.99
28648;BME280;17137;51.494;-0.262;2022-07-23T02:07:00;49967.60;;;-145.72;74.84
28648;BME280;17137;51.494;-0.262;2022-07-23T02:07:30;49967.35;;;-145.72;74.51
28648;BME280;17137;51.494;-0.262;2022-07-23T02:08:01;49963.41;;;-145.72;74.15
28648;BME280;17137;51.494;-0.262;2022-07-23T02:08:31;49972.40;;;-145.72;74.39
28648;BME280;17137;51.494;-0.262;2022-07-23T02:09:07;49966.61;;;-145.72;74.56
28648;BME280;17137;51.494;-0.262;2022-07-23T02:09:37;49975.61;;;-145.72;75.05
28648;BME280;17137;51.494;-0.262;2022-07-23T02:10:09;49967.84;;;-145.72;74.79
28648;BME280;17137;51.494;-0.262;2022-07-23T02:10:39;49967.10;;;-145.72;74.46
28648;BME280;17137;51.494;-0.262;2022-07-23T02:11:09;49965.87;;;-145.72;74.33
28648;BME280;17137;51.494;-0.262;2022-07-23T02:11:40;49975.98;;;-145.72;74.85
28648;BME280;17137;51.494;-0.262;2022-07-23T02:12:11;49970.68;;;-145.72;75.13
28648;BME280;17137;51.494;-0.262;2022-07-23T02:12:42;49974.01;;;-145.72;75.13
28648;BME280;17137;51.494;-0.262;2022-07-23T02:13:13;49973.27;;;-145.72;75.33
28648;BME280;17137;51.494;-0.262;2022-07-23T02:13:43;49967.47;;;-145.72;75.28
28648;BME280;17137;51.494;-0.262;2022-07-23T02:14:14;49977.83;;;-145.72;75.65
28648;BME280;17137;51.494;-0.262;2022-07-23T02:14:44;49983.50;;;-145.72;76.18
28648;BME280;17137;51.494;-0.262;2022-07-23T02:15:14;49975.61;;;-145.72;76.51
28648;BME280;17137;51.494;-0.262;2022-07-23T02:15:45;49983.74;;;-145.72;76.83
28648;BME280;17137;51.494;-0.262;2022-07-23T02:16:15;49977.09;;;-145.72;76.41
28648;BME280;17137;51.494;-0.262;2022-07-23T02:16:46;49979.68;;;-145.72;76.01
28648;BME280;17137;51.494;-0.262;2022-07-23T02:17:17;49974.13;;;-145.72;75.83
28648;BME280;17137;51.494;-0.262;2022-07-23T02:17:47;49976.47;;;-145.72;75.62
28648;BME280;17137;51.494;-0.262;2022-07-23T02:18:18;49974.50;;;-145.72;75.83
28648;BME280;17137;51.494;-0.262;2022-07-23T02:18:48;49980.42;;;-145.72;75.68
28648;BME280;17137;51.494;-0.262;2022-07-23T02:19:48;49971.30;;;-145.72;75.70
28648;BME280;17137;51.494;-0.262;2022-07-23T02:20:18;49972.77;;;-145.72;75.68
28648;BME280;17137;51.494;-0.262;2022-07-23T02:20:48;49970.06;;;-145.72;75.46
28648;BME280;17137;51.494;-0.262;2022-07-23T02:21:18;49966.24;;;-145.72;75.49
28648;BME280;17137;51.494;-0.262;2022-07-23T02:21:49;49967.97;;;-145.72;75.34
28648;BME280;17137;51.494;-0.262;2022-07-23T02:22:19;49967.97;;;-145.72;74.98
28648;BME280;17137;51.494;-0.262;2022-07-23T02:22:50;49972.40;;;-145.72;74.93
28648;BME280;17137;51.494;-0.262;2022-07-23T02:23:20;49974.99;;;-145.72;75.07
28648;BME280;17137;51.494;-0.262;2022-07-23T02:23:50;49977.58;;;-145.72;74.92
28648;BME280;17137;51.494;-0.262;2022-07-23T02:24:21;49963.28;;;-145.72;75.14
28648;BME280;17137;51.494;-0.262;2022-07-23T02:24:51;49971.79;;;-145.72;75.17
28648;BME280;17137;51.494;-0.262;2022-07-23T02:25:22;49973.76;;;-145.72;75.28
28648;BME280;17137;51.494;-0.262;2022-07-23T02:25:52;49966.49;;;-145.72;75.17
28648;BME280;17137;51.494;-0.262;2022-07-23T02:26:22;49969.08;;;-145.72;75.08
28648;BME280;17137;51.494;-0.262;2022-07-23T02:26:52;49969.32;;;-145.72;75.14
28648;BME280;17137;51.494;-0.262;2022-07-23T02:27:23;49969.32;;;-145.72;75.01
28648;BME280;17137;51.494;-0.262;2022-07-23T02:27:53;49972.28;;;-145.72;75.50
28648;BME280;17137;51.494;-0.262;2022-07-23T02:28:23;49969.57;;;-145.72;75.71
28648;BME280;17137;51.494;-0.262;2022-07-23T02:28:54;49972.90;;;-145.72;75.80
28648;BME280;17137;51.494;-0.262;2022-07-23T02:29:29;49979.92;;;-145.72;75.76
28648;BME280;17137;51.494;-0.262;2022-07-23T02:29:59;49975.73;;;-145.72;75.66
28648;BME280;17137;51.494;-0.262;2022-07-23T02:30:29;49978.69;;;-145.72;75.90
28648;BME280;17137;51.494;-0.262;2022-07-23T02:31:00;49969.20;;;-145.72;76.13
28648;BME280;17137;51.494;-0.262;2022-07-23T02:31:30;49977.83;;;-145.72;76.69
28648;BME280;17137;51.494;-0.262;2022-07-23T02:32:00;49980.42;;;-145.72;76.91
28648;BME280;17137;51.494;-0.262;2022-07-23T02:32:31;49982.88;;;-145.72;76.44
28648;BME280;17137;51.494;-0.262;2022-07-23T02:33:01;49978.69;;;-145.72;76.60
28648;BME280;17137;51.494;-0.262;2022-07-23T02:33:31;49982.88;;;-145.72;77.26
28648;BME280;17137;51.494;-0.262;2022-07-23T02:34:02;49986.58;;;-145.72;77.44
28648;BME280;17137;51.494;-0.262;2022-07-23T02:34:32;49981.53;;;-145.72;77.02
28648;BME280;17137;51.494;-0.262;2022-07-23T02:35:03;49981.77;;;-145.72;77.03
28648;BME280;17137;51.494;-0.262;2022-07-23T02:35:33;49989.04;;;-145.72;77.25
28648;BME280;17137;51.494;-0.262;2022-07-23T02:36:04;49982.64;;;-145.72;77.14
28648;BME280;17137;51.494;-0.262;2022-07-23T02:36:34;49988.43;;;-145.72;77.07
28648;BME280;17137;51.494;-0.262;2022-07-23T02:37:05;49999.03;;;-145.72;77.96
28648;BME280;17137;51.494;-0.262;2022-07-23T02:37:36;49986.46;;;-145.72;77.96